Time;durP1;ratioP1;P1;durP2;ratioP2;P2;SDS_P1;SDS_P2;PMS_P1;PMS_P2;Temp;Humidity;BMP_temperature;BMP_pressure;BME280_temperature;BME280_humidity;BME280_pressure;Samples;Min_cycle;Max_cycle;Signal;HPM_P1;HPM_P2
2022/06/21 00:00:50;;;;;;;5.80;2.10;;;;;;;;;;5041181;28;20033;-70
2022/06/21 00:03:19;;;;;;;3.35;2.20;;;;;;;;;;5042250;28;20094;-70
2022/06/21 00:13:17;;;;;;;1.92;1.75;;;;;;;;;;5042340;28;20538;-69
2022/06/21 00:15:44;;;;;;;4.82;1.85;;;;;;;;;;5024340;28;20037;-69
2022/06/21 00:18:15;;;;;;;4.63;2.10;;;;;;;;;;5043479;28;20081;-68
2022/06/21 00:20:41;;;;;;;1.80;1.70;;;;;;;;;;5042989;28;20032;-70
2022/06/21 00:23:16;;;;;;;4.30;1.90;;;;;;;;;;5042618;28;20041;-68
2022/06/21 00:25:42;;;;;;;2.30;1.90;;;;;;;;;;5041921;28;20368;-69
2022/06/21 00:28:08;;;;;;;3.72;2.10;;;;;;;;;;5042828;28;20588;-69
2022/06/21 00:30:33;;;;;;;4.53;1.90;;;;;;;;;;5042121;28;20565;-69
2022/06/21 00:32:59;;;;;;;6.00;1.80;;;;;;;;;;5042418;28;20119;-71
2022/06/21 00:35:25;;;;;;;2.92;1.75;;;;;;;;;;5040909;28;20129;-70
2022/06/21 00:37:52;;;;;;;4.07;2.15;;;;;;;;;;5042196;28;20086;-68
2022/06/21 00:40:25;;;;;;;8.45;2.00;;;;;;;;;;5042587;28;20482;-69
2022/06/21 00:43:14;;;;;;;2.00;1.80;;;;;;;;;;5042126;28;20037;-71
2022/06/21 00:45:42;;;;;;;1.50;1.40;;;;;;;;;;5022996;28;20047;-69
2022/06/21 00:48:23;;;;;;;2.03;1.70;;;;;;;;;;5042183;28;20414;-68
2022/06/21 00:50:53;;;;;;;1.50;1.40;;;;;;;;;;5024535;28;20049;-68
2022/06/21 00:53:25;;;;;;;2.55;1.50;;;;;;;;;;5041297;28;20070;-70
2022/06/21 00:55:59;;;;;;;2.55;1.40;;;;;;;;;;5040672;28;20105;-70
2022/06/21 00:58:26;;;;;;;2.15;1.50;;;;;;;;;;5041598;28;20052;-69
2022/06/21 01:01:01;;;;;;;1.83;1.60;;;;;;;;;;5023382;28;20056;-69
2022/06/21 01:04:07;;;;;;;1.50;1.38;;;;;;;;;;5041333;28;20496;-69
2022/06/21 01:06:40;;;;;;;3.05;1.60;;;;;;;;;;5035833;28;20535;-69
2022/06/21 01:09:14;;;;;;;3.58;1.50;;;;;;;;;;5023368;28;20051;-70
2022/06/21 01:11:48;;;;;;;2.40;1.50;;;;;;;;;;5040899;28;20037;-70
2022/06/21 01:14:17;;;;;;;2.72;1.40;;;;;;;;;;5041389;28;20058;-71
2022/06/21 01:16:42;;;;;;;1.85;1.40;;;;;;;;;;5040512;28;20234;-70
2022/06/21 01:19:29;;;;;;;1.55;1.38;;;;;;;;;;5040232;28;20503;-70
2022/06/21 01:22:04;;;;;;;5.32;1.55;;;;;;;;;;5026351;28;20055;-68
2022/06/21 01:24:40;;;;;;;2.47;1.42;;;;;;;;;;5040595;28;20048;-68
2022/06/21 01:27:06;;;;;;;2.90;1.52;;;;;;;;;;5041682;28;20059;-70
2022/06/21 01:29:33;;;;;;;1.20;1.13;;;;;;;;;;5039785;28;20032;-70
2022/06/21 01:32:02;;;;;;;1.42;1.33;;;;;;;;;;5040744;28;20136;-69
2022/06/21 01:34:29;;;;;;;1.70;1.20;;;;;;;;;;5022571;28;20028;-70
2022/06/21 01:37:08;;;;;;;3.33;1.13;;;;;;;;;;5040910;28;20078;-70
2022/06/21 01:39:49;;;;;;;1.88;1.30;;;;;;;;;;5040244;28;20028;-71
2022/06/21 01:42:52;;;;;;;3.00;1.20;;;;;;;;;;5040758;28;20040;-70
2022/06/21 01:45:21;;;;;;;1.23;1.05;;;;;;;;;;5040553;28;20484;-70
2022/06/21 01:48:00;;;;;;;2.05;1.00;;;;;;;;;;5040849;28;20033;-70
2022/06/21 01:50:26;;;;;;;1.10;1.00;;;;;;;;;;5040015;28;20037;-70
2022/06/21 01:52:53;;;;;;;1.65;1.20;;;;;;;;;;5040625;28;20040;-70
2022/06/21 01:55:32;;;;;;;2.67;1.00;;;;;;;;;;5040356;28;20032;-70
2022/06/21 01:58:00;;;;;;;1.35;0.88;;;;;;;;;;5040698;28;20069;-69
2022/06/21 02:00:26;;;;;;;1.63;1.00;;;;;;;;;;5040459;28;20044;-70
2022/06/21 02:02:57;;;;;;;2.35;1.10;;;;;;;;;;5039485;28;20033;-70
2022/06/21 02:05:32;;;;;;;5.30;0.93;;;;;;;;;;5041329;28;20104;-70
2022/06/21 02:08:05;;;;;;;2.17;0.90;;;;;;;;;;5044459;28;20465;-69
2022/06/21 02:10:58;;;;;;;0.90;0.85;;;;;;;;;;5044605;28;20040;-70
2022/06/21 02:13:27;;;;;;;2.80;0.90;;;;;;;;;;5043165;28;20025;-69
2022/06/21 02:16:00;;;;;;;1.73;0.80;;;;;;;;;;5043297;28;20040;-70
2022/06/21 02:18:29;;;;;;;1.02;1.02;;;;;;;;;;5044441;28;20473;-70
2022/06/21 02:21:03;;;;;;;1.23;1.05;;;;;;;;;;5026431;28;20075;-70
2022/06/21 02:23:29;;;;;;;3.05;0.93;;;;;;;;;;5043341;28;20533;-70
2022/06/21 02:25:56;;;;;;;1.95;0.93;;;;;;;;;;5043297;28;20112;-70
2022/06/21 02:28:23;;;;;;;1.77;1.00;;;;;;;;;;5043949;28;20458;-69
2022/06/21 02:30:51;;;;;;;1.58;0.90;;;;;;;;;;5043988;28;20033;-70
2022/06/21 02:33:23;;;;;;;1.58;1.20;;;;;;;;;;5044257;28;20059;-70
2022/06/21 02:35:55;;;;;;;1.95;1.10;;;;;;;;;;5042446;28;20482;-69
2022/06/21 02:38:46;;;;;;;2.47;1.02;;;;;;;;;;5044035;28;20033;-70
2022/06/21 02:41:30;;;;;;;3.17;1.05;;;;;;;;;;5031939;28;20041;-70
2022/06/21 02:44:21;;;;;;;2.95;1.20;;;;;;;;;;5043710;28;20044;-70
2022/06/21 02:46:51;;;;;;;1.00;0.90;;;;;;;;;;5024356;28;20114;-70
2022/06/21 02:49:25;;;;;;;1.58;0.73;;;;;;;;;;5043426;28;20029;-70
2022/06/21 02:51:56;;;;;;;3.33;0.80;;;;;;;;;;5043429;28;20028;-70
2022/06/21 02:54:28;;;;;;;1.75;0.75;;;;;;;;;;5044077;28;20029;-69
2022/06/21 02:57:07;;;;;;;5.78;0.75;;;;;;;;;;5042492;28;20493;-70
2022/06/21 02:59:36;;;;;;;2.88;0.82;;;;;;;;;;5040784;28;20486;-69
2022/06/21 03:02:08;;;;;;;2.35;0.93;;;;;;;;;;5043655;28;20497;-69
2022/06/21 03:04:40;;;;;;;1.33;1.02;;;;;;;;;;5041323;28;20086;-67
2022/06/21 03:07:07;;;;;;;4.15;0.90;;;;;;;;;;5024094;28;20079;-67
2022/06/21 03:09:34;;;;;;;2.83;0.90;;;;;;;;;;5043125;28;20079;-68
2022/06/21 03:12:04;;;;;;;1.05;1.02;;;;;;;;;;5043417;28;20099;-69
2022/06/21 03:14:33;;;;;;;2.88;0.98;;;;;;;;;;5041294;28;20128;-67
2022/06/21 03:17:01;;;;;;;1.85;0.90;;;;;;;;;;5041903;28;20029;-68
2022/06/21 03:20:09;;;;;;;4.80;0.90;;;;;;;;;;5042004;28;20119;-68
2022/06/21 03:22:35;;;;;;;2.78;1.10;;;;;;;;;;4923243;29;20050;-69
2022/06/21 03:25:05;;;;;;;1.40;0.68;;;;;;;;;;4923047;29;20031;-69
2022/06/21 03:27:46;;;;;;;1.13;0.98;;;;;;;;;;4985163;28;20037;-69
2022/06/21 03:30:12;;;;;;;1.10;0.70;;;;;;;;;;5041518;28;20086;-69
2022/06/21 03:32:38;;;;;;;1.10;0.85;;;;;;;;;;5042532;28;20036;-68
2022/06/21 03:35:05;;;;;;;0.90;0.82;;;;;;;;;;5042438;28;20068;-68
2022/06/21 03:37:30;;;;;;;2.58;0.80;;;;;;;;;;5043006;28;20032;-68
2022/06/21 03:42:46;;;;;;;1.13;0.70;;;;;;;;;;5024620;28;20037;-68
2022/06/21 03:45:31;;;;;;;2.13;0.85;;;;;;;;;;5041947;28;20037;-67
2022/06/21 03:48:13;;;;;;;1.02;0.70;;;;;;;;;;5042423;28;20036;-68
2022/06/21 03:50:45;;;;;;;1.95;0.80;;;;;;;;;;5042934;28;20378;-68
2022/06/21 03:53:28;;;;;;;3.53;0.95;;;;;;;;;;5041970;28;20375;-69
2022/06/21 03:56:10;;;;;;;1.15;0.73;;;;;;;;;;5041960;28;20040;-68
2022/06/21 03:59:01;;;;;;;1.98;0.60;;;;;;;;;;5042452;28;20058;-69
2022/06/21 04:01:53;;;;;;;3.65;1.00;;;;;;;;;;5041716;28;20064;-67
2022/06/21 04:04:49;;;;;;;1.48;0.63;;;;;;;;;;5017126;28;20051;-68
2022/06/21 04:07:42;;;;;;;1.10;0.88;;;;;;;;;;5042452;28;20039;-70
2022/06/21 04:10:16;;;;;;;0.75;0.65;;;;;;;;;;5024982;28;20948;-69
2022/06/21 04:13:26;;;;;;;1.63;0.70;;;;;;;;;;5042413;28;20033;-69
2022/06/21 04:15:57;;;;;;;0.80;0.68;;;;;;;;;;4978211;28;21303;-69
2022/06/21 04:18:26;;;;;;;1.98;0.82;;;;;;;;;;5041823;28;20032;-69
2022/06/21 04:21:06;;;;;;;1.55;0.65;;;;;;;;;;5041400;28;20452;-69
2022/06/21 04:23:47;;;;;;;1.73;0.85;;;;;;;;;;5041875;28;20111;-69
2022/06/21 04:26:20;;;;;;;2.97;0.70;;;;;;;;;;5040489;28;20045;-69
2022/06/21 04:29:02;;;;;;;1.67;0.80;;;;;;;;;;5040833;28;20041;-68
2022/06/21 04:31:34;;;;;;;4.35;0.90;;;;;;;;;;5041742;28;20061;-68
2022/06/21 04:34:26;;;;;;;0.70;0.70;;;;;;;;;;5040847;28;20045;-68
2022/06/21 04:37:08;;;;;;;0.70;0.70;;;;;;;;;;5039502;28;20090;-69
2022/06/21 04:39:41;;;;;;;2.70;0.98;;;;;;;;;;5023513;28;20536;-68
2022/06/21 04:42:13;;;;;;;1.65;0.95;;;;;;;;;;5041712;28;20041;-70
2022/06/21 04:44:47;;;;;;;3.38;1.10;;;;;;;;;;5041456;28;20025;-67
2022/06/21 04:47:26;;;;;;;0.80;0.80;;;;;;;;;;5039960;28;20032;-68
2022/06/21 04:50:00;;;;;;;4.20;0.93;;;;;;;;;;5022124;28;20068;-67
2022/06/21 04:52:39;;;;;;;0.95;0.77;;;;;;;;;;5040381;28;20493;-69
2022/06/21 04:55:08;;;;;;;2.60;1.00;;;;;;;;;;5039492;28;20048;-68
2022/06/21 04:57:34;;;;;;;1.23;0.90;;;;;;;;;;5039799;28;20990;-68
2022/06/21 05:00:03;;;;;;;4.47;1.20;;;;;;;;;;5040691;28;20581;-69
2022/06/21 05:02:33;;;;;;;2.33;1.10;;;;;;;;;;5040264;28;20120;-69
2022/06/21 05:05:12;;;;;;;2.00;1.10;;;;;;;;;;5038243;28;20044;-69
2022/06/21 05:07:43;;;;;;;1.75;0.88;;;;;;;;;;5039076;28;20064;-68
2022/06/21 05:10:15;;;;;;;2.30;0.90;;;;;;;;;;5021925;28;20057;-67
2022/06/21 05:12:43;;;;;;;1.17;0.95;;;;;;;;;;5040805;28;20043;-68
2022/06/21 05:15:18;;;;;;;1.13;1.00;;;;;;;;;;5035949;28;20136;-69
2022/06/21 05:17:55;;;;;;;4.35;1.00;;;;;;;;;;5019185;28;20490;-68
2022/06/21 05:20:26;;;;;;;2.63;1.23;;;;;;;;;;5036088;28;20032;-68
2022/06/21 05:22:56;;;;;;;2.22;1.48;;;;;;;;;;5037583;28;20675;-69
2022/06/21 05:25:32;;;;;;;3.67;1.00;;;;;;;;;;5036822;28;20482;-68
2022/06/21 05:28:04;;;;;;;2.35;1.15;;;;;;;;;;5037373;28;20063;-68
2022/06/21 05:30:38;;;;;;;3.95;1.10;;;;;;;;;;5038234;28;20052;-69
2022/06/21 05:33:21;;;;;;;3.67;1.17;;;;;;;;;;5038551;28;20044;-67
2022/06/21 05:35:47;;;;;;;1.75;1.10;;;;;;;;;;5038654;28;20119;-68
2022/06/21 05:38:20;;;;;;;4.30;1.00;;;;;;;;;;5039026;28;20044;-68
2022/06/21 05:40:59;;;;;;;1.98;1.10;;;;;;;;;;5040736;28;20056;-68
2022/06/21 05:43:32;;;;;;;4.00;1.00;;;;;;;;;;5024297;28;20116;-67
2022/06/21 05:46:01;;;;;;;3.90;1.00;;;;;;;;;;5042702;28;20060;-68
2022/06/21 05:48:31;;;;;;;8.50;1.30;;;;;;;;;;5043956;28;20076;-69
2022/06/21 05:50:58;;;;;;;12.77;1.95;;;;;;;;;;5044317;28;20052;-68
2022/06/21 05:53:30;;;;;;;4.03;1.50;;;;;;;;;;5043537;28;20075;-68
2022/06/21 05:55:56;;;;;;;;;;;;;;;;;;5042364;28;20336;-67
2022/06/21 05:58:25;;;;;;;1.77;1.20;;;;;;;;;;5043040;28;19968;-68
2022/06/21 06:00:55;;;;;;;5.00;1.10;;;;;;;;;;5042519;28;20033;-69
2022/06/21 06:03:23;;;;;;;4.97;1.25;;;;;;;;;;5041835;28;20110;-68
2022/06/21 06:05:49;;;;;;;2.72;1.25;;;;;;;;;;5041618;28;20112;-68
2022/06/21 06:08:22;;;;;;;3.47;1.10;;;;;;;;;;5042628;28;20323;-68
2022/06/21 06:10:47;;;;;;;1.95;1.10;;;;;;;;;;5043375;28;20037;-69
2022/06/21 06:13:18;;;;;;;2.25;1.27;;;;;;;;;;5044194;28;20048;-69
2022/06/21 06:15:48;;;;;;;1.67;1.00;;;;;;;;;;5042457;28;20094;-68
2022/06/21 06:18:50;;;;;;;2.45;1.00;;;;;;;;;;5043889;28;20036;-68
2022/06/21 06:21:22;;;;;;;2.50;1.02;;;;;;;;;;4959559;28;20064;-68
2022/06/21 06:23:55;;;;;;;1.95;1.00;;;;;;;;;;5043615;28;20056;-69
2022/06/21 06:26:25;;;;;;;3.40;1.35;;;;;;;;;;5042547;28;20467;-68
2022/06/21 06:29:03;;;;;;;5.15;1.20;;;;;;;;;;5043525;28;20036;-69
2022/06/21 06:31:39;;;;;;;5.43;1.45;;;;;;;;;;5039100;28;20044;-69
2022/06/21 06:34:12;;;;;;;4.22;1.10;;;;;;;;;;5040952;28;20082;-68
2022/06/21 06:36:42;;;;;;;1.77;1.10;;;;;;;;;;5041542;28;20044;-69
2022/06/21 06:39:24;;;;;;;2.17;1.10;;;;;;;;;;5043053;28;20029;-69
2022/06/21 06:42:17;;;;;;;;;;;;;;;;;;5043586;28;20056;-70
2022/06/21 06:44:48;;;;;;;2.50;1.17;;;;;;;;;;5038821;28;19994;-69
2022/06/21 06:47:17;;;;;;;2.50;0.85;;;;;;;;;;5042603;28;20040;-70
2022/06/21 06:50:01;;;;;;;2.05;1.00;;;;;;;;;;5041928;28;20032;-69
2022/06/21 06:52:32;;;;;;;4.05;2.42;;;;;;;;;;5037493;28;20039;-71
2022/06/21 06:55:16;;;;;;;2.45;0.90;;;;;;;;;;5042984;28;20037;-68
2022/06/21 06:57:52;;;;;;;2.33;1.00;;;;;;;;;;5042533;28;20079;-71
2022/06/21 07:00:26;;;;;;;4.68;1.20;;;;;;;;;;5042439;28;20041;-72
2022/06/21 07:03:01;;;;;;;2.95;1.02;;;;;;;;;;5042367;28;21200;-69
2022/06/21 07:05:39;;;;;;;6.22;1.00;;;;;;;;;;5042661;28;20097;-70
2022/06/21 07:08:27;;;;;;;4.78;1.10;;;;;;;;;;5043265;28;20036;-70
2022/06/21 07:10:54;;;;;;;2.28;1.00;;;;;;;;;;5024531;28;20024;-70
2022/06/21 07:13:20;;;;;;;3.17;1.05;;;;;;;;;;5041706;28;20041;-71
2022/06/21 07:15:49;;;;;;;2.17;1.02;;;;;;;;;;5024577;28;20037;-71
2022/06/21 07:18:28;;;;;;;2.20;1.00;;;;;;;;;;5025451;28;20033;-71
2022/06/21 07:20:54;;;;;;;6.82;1.10;;;;;;;;;;5042614;28;20039;-70
2022/06/21 07:23:24;;;;;;;5.13;1.00;;;;;;;;;;5041048;28;20037;-69
2022/06/21 07:25:55;;;;;;;3.78;1.13;;;;;;;;;;5042301;28;20040;-69
2022/06/21 07:28:53;;;;;;;3.08;1.25;;;;;;;;;;5042915;28;20033;-68
2022/06/21 07:31:37;;;;;;;4.82;1.13;;;;;;;;;;4995541;28;20125;-68
2022/06/21 07:34:23;;;;;;;9.57;1.17;;;;;;;;;;5041751;28;20040;-69
2022/06/21 07:36:54;;;;;;;1.92;0.70;;;;;;;;;;5042287;28;20048;-67
2022/06/21 07:39:30;;;;;;;3.30;1.10;;;;;;;;;;5042991;28;20064;-70
2022/06/21 07:42:13;;;;;;;2.67;1.20;;;;;;;;;;5042027;28;20075;-70
2022/06/21 07:44:58;;;;;;;2.38;1.08;;;;;;;;;;5041570;28;20033;-70
2022/06/21 07:47:28;;;;;;;4.07;1.00;;;;;;;;;;5036035;28;20048;-67
2022/06/21 07:50:05;;;;;;;2.45;1.00;;;;;;;;;;5041803;28;20559;-68
2022/06/21 07:52:39;;;;;;;6.88;1.27;;;;;;;;;;5041358;28;20045;-69
2022/06/21 07:55:33;;;;;;;21.05;1.88;;;;;;;;;;5040958;28;20480;-69
2022/06/21 07:58:04;;;;;;;1.70;1.05;;;;;;;;;;5041349;28;20401;-69
2022/06/21 08:06:41;;;;;;;;;;;;;;;;;;5042768;28;20067;-70
2022/06/21 08:09:08;;;;;;;2.50;1.20;;;;;;;;;;5041129;28;20047;-71
2022/06/21 08:11:38;;;;;;;1.60;0.82;;;;;;;;;;5041871;28;20029;-70
2022/06/21 08:14:04;;;;;;;1.08;1.00;;;;;;;;;;5023438;28;20048;-69
2022/06/21 08:16:39;;;;;;;2.33;1.10;;;;;;;;;;5040688;28;20029;-70
2022/06/21 08:19:12;;;;;;;3.35;1.00;;;;;;;;;;5040792;28;20079;-68
2022/06/21 08:21:48;;;;;;;1.55;1.05;;;;;;;;;;5042029;28;20048;-70
2022/06/21 08:24:39;;;;;;;4.50;1.15;;;;;;;;;;5037810;28;20446;-72
2022/06/21 08:27:10;;;;;;;2.95;0.95;;;;;;;;;;5036495;28;20039;-70
2022/06/21 08:29:43;;;;;;;2.58;0.80;;;;;;;;;;5037659;28;20131;-69
2022/06/21 08:32:37;;;;;;;3.13;1.02;;;;;;;;;;5038214;28;20724;-71
2022/06/21 08:35:33;;;;;;;3.67;1.00;;;;;;;;;;5038240;28;20125;-69
2022/06/21 08:38:05;;;;;;;1.73;0.93;;;;;;;;;;5037051;28;20033;-71
2022/06/21 08:41:07;;;;;;;2.17;1.10;;;;;;;;;;5036904;28;20068;-73
2022/06/21 08:43:35;;;;;;;;;;;;;;;;;;5037811;28;20061;-74
2022/06/21 08:46:25;;;;;;;1.38;1.00;;;;;;;;;;5037251;28;19920;-73
2022/06/21 08:49:20;;;;;;;5.63;1.10;;;;;;;;;;5037176;28;20041;-71
2022/06/21 08:52:15;;;;;;;2.08;1.08;;;;;;;;;;5053091;28;20511;-73
2022/06/21 08:55:10;;;;;;;3.15;1.63;;;;;;;;;;5036867;28;20052;-69
2022/06/21 08:57:53;;;;;;;3.65;1.08;;;;;;;;;;5040458;28;20474;-69
2022/06/21 09:00:36;;;;;;;4.97;1.00;;;;;;;;;;5036222;28;20091;-71
2022/06/21 09:03:46;;;;;;;2.53;1.05;;;;;;;;;;5039180;28;20144;-71
2022/06/21 09:06:30;;;;;;;1.45;1.23;;;;;;;;;;5034958;28;20041;-75
2022/06/21 09:09:04;;;;;;;2.63;1.23;;;;;;;;;;5034043;28;20037;-76
2022/06/21 09:12:04;;;;;;;2.60;1.20;;;;;;;;;;5034925;28;20510;-70
2022/06/21 09:15:20;;;;;;;1.80;1.00;;;;;;;;;;5034437;28;20034;-68
2022/06/21 09:17:56;;;;;;;4.95;1.40;;;;;;;;;;4994153;28;20042;-70
2022/06/21 09:20:40;;;;;;;2.95;1.40;;;;;;;;;;4994926;28;20252;-70
2022/06/21 09:23:26;;;;;;;2.80;1.40;;;;;;;;;;5014665;28;20041;-72
2022/06/21 09:26:11;;;;;;;4.68;1.73;;;;;;;;;;5036818;28;20048;-68
2022/06/21 09:28:39;;;;;;;5.93;1.55;;;;;;;;;;5036538;28;21099;-70
2022/06/21 09:31:17;;;;;;;6.00;1.88;;;;;;;;;;5035553;28;20573;-72
2022/06/21 09:33:52;;;;;;;9.20;2.40;;;;;;;;;;5033968;28;20065;-68
2022/06/21 09:36:47;;;;;;;7.03;1.63;;;;;;;;;;5021877;28;20041;-71
2022/06/21 09:39:31;;;;;;;4.03;1.58;;;;;;;;;;5022823;28;20041;-75
2022/06/21 09:42:14;;;;;;;3.33;1.75;;;;;;;;;;5023314;28;20402;-68
2022/06/21 09:45:16;;;;;;;5.75;2.30;;;;;;;;;;5022781;28;20033;-73
2022/06/21 09:47:47;;;;;;;4.10;2.25;;;;;;;;;;5023670;28;20048;-69
2022/06/21 09:50:19;;;;;;;5.97;1.65;;;;;;;;;;5023449;28;20091;-68
2022/06/21 09:52:56;;;;;;;4.05;1.80;;;;;;;;;;5023833;28;20554;-67
2022/06/21 09:55:40;;;;;;;6.93;2.33;;;;;;;;;;5021905;28;20041;-71
2022/06/21 09:58:18;;;;;;;2.67;1.65;;;;;;;;;;5023146;28;20049;-70
2022/06/21 10:01:17;;;;;;;3.20;1.67;;;;;;;;;;5022918;28;20037;-69
2022/06/21 10:03:55;;;;;;;4.70;2.13;;;;;;;;;;5022319;28;20042;-69
2022/06/21 10:06:42;;;;;;;3.30;2.25;;;;;;;;;;5022342;28;20037;-69
2022/06/21 10:09:28;;;;;;;2.72;1.92;;;;;;;;;;5022104;28;20069;-69
2022/06/21 10:12:12;;;;;;;4.80;2.03;;;;;;;;;;5023323;28;20080;-68
2022/06/21 10:14:57;;;;;;;4.82;2.58;;;;;;;;;;5025402;28;20038;-69
2022/06/21 10:18:07;;;;;;;3.33;3.03;;;;;;;;;;5026403;28;20067;-70
2022/06/21 10:20:46;;;;;;;6.43;2.20;;;;;;;;;;5015600;28;20119;-70
2022/06/21 10:23:30;;;;;;;5.00;2.20;;;;;;;;;;5022655;28;20045;-70
2022/06/21 10:26:17;;;;;;;3.13;2.10;;;;;;;;;;5023461;28;20041;-72
2022/06/21 10:28:50;;;;;;;3.58;2.47;;;;;;;;;;5024825;28;20090;-73
2022/06/21 10:31:31;;;;;;;3.05;2.17;;;;;;;;;;5023363;28;20056;-69
2022/06/21 10:34:18;;;;;;;7.55;2.42;;;;;;;;;;5020231;28;20091;-72
2022/06/21 10:36:58;;;;;;;6.20;2.80;;;;;;;;;;5021542;28;20029;-72
2022/06/21 10:40:06;;;;;;;2.92;2.63;;;;;;;;;;5023370;28;20057;-68
2022/06/21 10:43:09;;;;;;;2.58;2.10;;;;;;;;;;5007881;28;20514;-69
2022/06/21 10:45:39;;;;;;;4.40;2.42;;;;;;;;;;4991389;28;20042;-74
2022/06/21 10:48:08;;;;;;;5.68;2.50;;;;;;;;;;5022955;28;20052;-72
2022/06/21 10:50:52;;;;;;;6.00;2.30;;;;;;;;;;5022908;28;20117;-69
2022/06/21 10:53:52;;;;;;;4.30;2.47;;;;;;;;;;5021907;28;20046;-68
2022/06/21 10:59:29;;;;;;;3.88;2.10;;;;;;;;;;5022019;28;20632;-68
2022/06/21 11:01:57;;;;;;;3.65;2.35;;;;;;;;;;5022994;28;20025;-69
2022/06/21 11:05:03;;;;;;;4.90;2.22;;;;;;;;;;5021286;28;20049;-69
2022/06/21 11:07:40;;;;;;;7.38;2.25;;;;;;;;;;5020974;28;21249;-71
2022/06/21 11:10:14;;;;;;;6.63;2.83;;;;;;;;;;5022900;28;20025;-68
2022/06/21 11:12:52;;;;;;;9.75;2.47;;;;;;;;;;5020029;28;20048;-70
2022/06/21 11:15:46;;;;;;;6.80;2.40;;;;;;;;;;5021823;28;20049;-71
2022/06/21 11:18:45;;;;;;;4.03;2.25;;;;;;;;;;5020505;28;20068;-69
2022/06/21 11:21:49;;;;;;;5.25;2.72;;;;;;;;;;5022133;28;20075;-68
2022/06/21 11:24:33;;;;;;;4.07;2.40;;;;;;;;;;4978748;28;20985;-70
2022/06/21 11:27:28;;;;;;;4.30;2.15;;;;;;;;;;5018525;28;20041;-70
2022/06/21 11:30:03;;;;;;;4.00;2.78;;;;;;;;;;5021376;28;20037;-71
2022/06/21 11:32:52;;;;;;;5.63;2.55;;;;;;;;;;5021817;28;20052;-72
2022/06/21 11:35:46;;;;;;;5.07;3.00;;;;;;;;;;5022124;28;20060;-69
2022/06/21 11:38:17;;;;;;;2.95;2.70;;;;;;;;;;5022671;28;20030;-68
2022/06/21 11:41:01;;;;;;;4.25;2.40;;;;;;;;;;5020779;28;20099;-68
2022/06/21 11:43:45;;;;;;;8.75;2.97;;;;;;;;;;5020737;28;20029;-70
2022/06/21 11:46:19;;;;;;;3.50;2.15;;;;;;;;;;5020675;28;20481;-70
2022/06/21 11:49:02;;;;;;;5.05;3.10;;;;;;;;;;5021011;28;20104;-71
2022/06/21 11:51:27;;;;;;;5.32;2.90;;;;;;;;;;5018847;28;20064;-72
2022/06/21 11:53:58;;;;;;;5.22;2.85;;;;;;;;;;5020073;28;20062;-71
2022/06/21 11:56:33;;;;;;;2.63;2.38;;;;;;;;;;5020122;28;20037;-68
2022/06/21 11:59:02;;;;;;;4.70;2.35;;;;;;;;;;5020137;28;20044;-68
2022/06/21 12:01:32;;;;;;;3.67;2.75;;;;;;;;;;5018816;28;20732;-71
2022/06/21 12:04:20;;;;;;;5.22;2.72;;;;;;;;;;5018997;28;20048;-71
2022/06/21 12:07:11;;;;;;;3.85;2.63;;;;;;;;;;5019926;28;20064;-72
2022/06/21 12:09:45;;;;;;;4.53;2.78;;;;;;;;;;5020391;28;20033;-69
2022/06/21 12:12:33;;;;;;;6.03;3.00;;;;;;;;;;5019065;28;20406;-69
2022/06/21 12:15:16;;;;;;;3.38;2.75;;;;;;;;;;5020716;28;20120;-71
2022/06/21 12:17:59;;;;;;;6.47;2.70;;;;;;;;;;5021080;28;20540;-71
2022/06/21 12:20:58;;;;;;;4.13;2.25;;;;;;;;;;5020320;28;20068;-69
2022/06/21 12:23:27;;;;;;;7.82;2.78;;;;;;;;;;5019703;28;20060;-70
2022/06/21 12:25:53;;;;;;;4.45;2.67;;;;;;;;;;5021604;28;20041;-69
2022/06/21 12:28:29;;;;;;;4.40;2.63;;;;;;;;;;5021457;28;20037;-68
2022/06/21 12:30:57;;;;;;;3.80;2.85;;;;;;;;;;5020790;28;20628;-70
2022/06/21 12:33:28;;;;;;;5.85;3.08;;;;;;;;;;5019590;28;20033;-71
2022/06/21 12:35:57;;;;;;;6.70;3.10;;;;;;;;;;5019327;28;20141;-71
2022/06/21 12:38:37;;;;;;;7.28;3.38;;;;;;;;;;5021381;28;20064;-71
2022/06/21 12:41:33;;;;;;;5.22;3.03;;;;;;;;;;5021641;28;20084;-72
2022/06/21 12:44:31;;;;;;;3.72;2.80;;;;;;;;;;5019314;28;20044;-69
2022/06/21 12:47:20;;;;;;;5.78;2.55;;;;;;;;;;5019316;28;20048;-69
2022/06/21 12:50:24;;;;;;;5.35;2.75;;;;;;;;;;5021276;28;20048;-68
2022/06/21 12:53:14;;;;;;;4.57;3.22;;;;;;;;;;5020216;28;20033;-70
2022/06/21 12:56:03;;;;;;;5.05;2.85;;;;;;;;;;5018844;28;20107;-73
2022/06/21 12:59:05;;;;;;;4.80;2.70;;;;;;;;;;5020613;28;20172;-68
2022/06/21 13:02:19;;;;;;;5.07;2.70;;;;;;;;;;5021087;28;20037;-68
2022/06/21 13:05:31;;;;;;;9.93;3.13;;;;;;;;;;4990506;28;20138;-70
2022/06/21 13:08:30;;;;;;;3.35;2.78;;;;;;;;;;5018622;28;20037;-72
2022/06/21 13:11:14;;;;;;;5.70;2.60;;;;;;;;;;5023468;28;20113;-69
2022/06/21 13:14:02;;;;;;;3.63;2.53;;;;;;;;;;5022646;28;20037;-68
2022/06/21 13:16:50;;;;;;;5.75;2.80;;;;;;;;;;5023265;28;20041;-69
2022/06/21 13:19:27;;;;;;;5.05;2.83;;;;;;;;;;5023567;28;20030;-70
2022/06/21 13:22:04;;;;;;;5.82;3.10;;;;;;;;;;5023447;28;20075;-70
2022/06/21 13:25:11;;;;;;;6.00;2.75;;;;;;;;;;5023814;28;20059;-70
2022/06/21 13:28:10;;;;;;;5.40;2.70;;;;;;;;;;4980986;28;20046;-71
2022/06/21 13:30:47;;;;;;;3.20;2.55;;;;;;;;;;5022868;28;20033;-69
2022/06/21 13:33:41;;;;;;;5.38;2.85;;;;;;;;;;5023442;28;20739;-70
2022/06/21 13:36:14;;;;;;;5.68;2.58;;;;;;;;;;5015585;28;20157;-71
2022/06/21 13:39:04;;;;;;;5.43;3.00;;;;;;;;;;5022582;28;20045;-68
2022/06/21 13:44:25;;;;;;;5.15;2.65;;;;;;;;;;5023174;28;20037;-72
2022/06/21 13:47:25;;;;;;;6.38;3.20;;;;;;;;;;5023113;28;20037;-68
2022/06/21 13:49:57;;;;;;;4.88;2.88;;;;;;;;;;5021698;28;20095;-70
2022/06/21 13:52:23;;;;;;;4.80;2.70;;;;;;;;;;5023836;28;20494;-70
2022/06/21 13:55:02;;;;;;;11.55;3.10;;;;;;;;;;5024031;28;20033;-69
2022/06/21 13:57:36;;;;;;;4.03;2.40;;;;;;;;;;5023140;28;20127;-72
2022/06/21 14:00:04;;;;;;;4.68;2.53;;;;;;;;;;5024716;28;20038;-69
2022/06/21 14:03:01;;;;;;;2.72;2.53;;;;;;;;;;5024505;28;20042;-72
2022/06/21 14:05:37;;;;;;;6.35;2.88;;;;;;;;;;5024969;28;20127;-69
2022/06/21 14:08:16;;;;;;;8.63;2.85;;;;;;;;;;5022553;28;20893;-68
2022/06/21 14:10:51;;;;;;;3.47;2.55;;;;;;;;;;5018338;28;20045;-69
2022/06/21 14:13:41;;;;;;;9.65;3.25;;;;;;;;;;5020251;28;20042;-70
2022/06/21 14:16:18;;;;;;;4.55;2.58;;;;;;;;;;5020331;28;20041;-70
2022/06/21 14:18:51;;;;;;;4.05;2.63;;;;;;;;;;5021138;28;20041;-69
2022/06/21 14:21:44;;;;;;;6.40;2.60;;;;;;;;;;5019199;28;20057;-69
2022/06/21 14:24:42;;;;;;;5.88;2.33;;;;;;;;;;5020073;28;20515;-68
2022/06/21 14:27:15;;;;;;;3.72;2.78;;;;;;;;;;5014727;28;20049;-69
2022/06/21 14:29:58;;;;;;;5.15;2.90;;;;;;;;;;5021308;28;20510;-70
2022/06/21 14:32:37;;;;;;;5.45;2.47;;;;;;;;;;5020239;28;20087;-68
2022/06/21 14:35:20;;;;;;;4.32;2.65;;;;;;;;;;5022170;28;20063;-73
2022/06/21 14:37:51;;;;;;;3.38;2.42;;;;;;;;;;5020476;28;20053;-73
2022/06/21 14:40:35;;;;;;;4.60;2.45;;;;;;;;;;5021152;28;20056;-71
2022/06/21 14:43:37;;;;;;;5.13;2.58;;;;;;;;;;5021889;28;20052;-70
2022/06/21 14:46:21;;;;;;;5.68;2.50;;;;;;;;;;5021762;28;20053;-72
2022/06/21 14:49:16;;;;;;;7.93;2.55;;;;;;;;;;5022884;28;20088;-69
2022/06/21 14:51:53;;;;;;;4.50;2.20;;;;;;;;;;4995303;28;20421;-70
2022/06/21 14:54:24;;;;;;;7.18;2.28;;;;;;;;;;5022290;28;20532;-71
2022/06/21 14:57:09;;;;;;;4.00;2.58;;;;;;;;;;5021666;28;20066;-71
2022/06/21 14:59:47;;;;;;;7.55;3.28;;;;;;;;;;5022086;28;20033;-70
2022/06/21 15:02:18;;;;;;;3.15;2.35;;;;;;;;;;5022487;28;20451;-70
2022/06/21 15:04:51;;;;;;;5.65;2.42;;;;;;;;;;5021512;28;20075;-71
2022/06/21 15:07:34;;;;;;;4.60;2.60;;;;;;;;;;5022083;28;20426;-69
2022/06/21 15:10:08;;;;;;;4.35;2.10;;;;;;;;;;5018403;28;20122;-70
2022/06/21 15:12:42;;;;;;;4.28;2.28;;;;;;;;;;5021635;28;20037;-73
2022/06/21 15:15:17;;;;;;;4.68;2.50;;;;;;;;;;5020961;28;20033;-71
2022/06/21 15:18:04;;;;;;;4.90;2.35;;;;;;;;;;5021227;28;20063;-70
2022/06/21 15:20:36;;;;;;;4.60;2.30;;;;;;;;;;5017726;28;20490;-69
2022/06/21 15:23:18;;;;;;;3.53;2.10;;;;;;;;;;5020418;28;20036;-71
2022/06/21 15:25:51;;;;;;;4.20;2.00;;;;;;;;;;5021457;28;20049;-69
2022/06/21 15:28:27;;;;;;;5.22;2.30;;;;;;;;;;5021536;28;20041;-68
2022/06/21 15:31:14;;;;;;;4.97;2.20;;;;;;;;;;5020694;28;20033;-71
2022/06/21 15:34:07;;;;;;;3.95;2.30;;;;;;;;;;5020130;28;20091;-70
2022/06/21 15:36:51;;;;;;;7.18;2.58;;;;;;;;;;5020479;28;20107;-71
2022/06/21 15:39:32;;;;;;;6.35;2.33;;;;;;;;;;5020545;28;20038;-69
2022/06/21 15:42:04;;;;;;;3.95;2.35;;;;;;;;;;5020281;28;20092;-70
2022/06/21 15:44:35;;;;;;;6.47;2.28;;;;;;;;;;5020270;28;20136;-71
2022/06/21 15:50:13;;;;;;;4.68;2.50;;;;;;;;;;5021176;28;20029;-72
2022/06/21 15:53:02;;;;;;;6.10;2.20;;;;;;;;;;5019912;28;20145;-70
2022/06/21 15:55:46;;;;;;;6.57;2.53;;;;;;;;;;5000268;28;20045;-68
2022/06/21 15:58:33;;;;;;;5.65;2.20;;;;;;;;;;5022850;28;20776;-70
2022/06/21 16:01:33;;;;;;;6.63;2.08;;;;;;;;;;5018168;28;21048;-70
2022/06/21 16:04:05;;;;;;;6.15;2.13;;;;;;;;;;5002188;28;20041;-69
2022/06/21 16:07:01;;;;;;;7.05;1.98;;;;;;;;;;5020319;28;20045;-70
2022/06/21 16:09:34;;;;;;;5.78;2.17;;;;;;;;;;5017039;28;20136;-69
2022/06/21 16:12:03;;;;;;;2.95;2.10;;;;;;;;;;5019755;28;20029;-69
2022/06/21 16:14:37;;;;;;;3.65;2.00;;;;;;;;;;5018672;28;20478;-69
2022/06/21 16:17:12;;;;;;;4.05;1.77;;;;;;;;;;5020045;28;20469;-69